createdAt,value
2023-02-13T00:00:27.039Z,99838.09
2023-02-13T00:02:54.479Z,99840.16
2023-02-13T00:05:21.927Z,99836.66
2023-02-13T00:07:49.387Z,99834.66
2023-02-13T00:10:17.270Z,99837.59
2023-02-13T00:12:44.730Z,99832.59
2023-02-13T00:15:13.563Z,99831.84
2023-02-13T00:17:41.125Z,99830.13
2023-02-13T00:20:11.494Z,99833.63
2023-02-13T00:22:41.956Z,99830.03
2023-02-13T00:25:09.987Z,99823.22
2023-02-13T00:27:37.432Z,99832.97
2023-02-13T00:30:05.594Z,99830.22
2023-02-13T00:32:35.137Z,99828.81
2023-02-13T00:35:02.693Z,99822.66
2023-02-13T00:37:30.136Z,99821.78
2023-02-13T00:39:57.835Z,99825.78
2023-02-13T00:42:26.531Z,99826.34
2023-02-13T00:44:54.126Z,99832.59
2023-02-13T00:47:21.807Z,99823.91
2023-02-13T00:49:50.611Z,99835.63
2023-02-13T00:52:18.104Z,99830.31
2023-02-13T00:54:47.188Z,99832.97
2023-02-13T00:57:14.497Z,99829.66
2023-02-13T00:59:41.944Z,99821.72
2023-02-13T01:02:09.368Z,99825.38
2023-02-13T01:04:36.902Z,99828.22
2023-02-13T01:07:05.792Z,99835.97
2023-02-13T01:09:33.375Z,99826.50
2023-02-13T01:12:00.807Z,99831.06
2023-02-13T01:14:28.238Z,99829.34
2023-02-13T01:16:55.814Z,99820.75
2023-02-13T01:19:23.273Z,99821.69
2023-02-13T01:21:50.765Z,99823.66
2023-02-13T01:24:19.540Z,99810.25
2023-02-13T01:26:46.991Z,99825.25
2023-02-13T01:29:15.108Z,99820.34
2023-02-13T01:31:42.660Z,99816.94
2023-02-13T01:34:10.204Z,99828.22
2023-02-13T01:36:37.666Z,99819.59
2023-02-13T01:39:05.159Z,99819.50
2023-02-13T01:41:34.166Z,99818.09
2023-02-13T01:44:02.406Z,99818.28
2023-02-13T01:46:34.034Z,99815.53
2023-02-13T01:49:06.305Z,99818.25
2023-02-13T01:51:36.423Z,99813.63
2023-02-13T01:54:06.863Z,99822.22
2023-02-13T01:56:38.385Z,99818.91
2023-02-13T01:59:09.967Z,99817.13
2023-02-13T02:01:38.842Z,99812.69
2023-02-13T02:04:10.311Z,99811.03
2023-02-13T02:06:42.645Z,99810.75
2023-02-13T02:09:14.969Z,99810.50
2023-02-13T02:11:52.204Z,99806.13
2023-02-13T02:14:20.470Z,99818.41
2023-02-13T02:16:47.993Z,99816.03
2023-02-13T02:19:24.842Z,99816.31
2023-02-13T02:22:31.127Z,99812.03
2023-02-13T02:25:22.915Z,99811.22
2023-02-13T02:28:12.556Z,99810.25
2023-02-13T02:31:18.828Z,99805.06
2023-02-13T02:34:04.382Z,99804.28
2023-02-13T02:36:43.453Z,99798.25
2023-02-13T02:39:19.593Z,99806.34
2023-02-13T02:41:57.306Z,99808.22
2023-02-13T02:44:33.505Z,99819.75
2023-02-13T02:47:28.958Z,99817.09
2023-02-13T02:50:10.300Z,99820.53
2023-02-13T02:52:47.614Z,99818.13
2023-02-13T02:55:28.405Z,99817.28
2023-02-13T02:58:21.041Z,99813.78
2023-02-13T03:01:08.965Z,99806.97
2023-02-13T03:04:03.365Z,99797.69
2023-02-13T03:06:38.143Z,99804.25
2023-02-13T03:09:29.234Z,99811.41
2023-02-13T03:12:15.514Z,99811.31
2023-02-13T03:14:44.221Z,99811.78
2023-02-13T03:17:31.324Z,99810.91
2023-02-13T03:20:28.655Z,99811.66
2023-02-13T03:23:08.093Z,99820.16
2023-02-13T03:25:41.360Z,99816.53
2023-02-13T03:28:35.514Z,99829.69
2023-02-13T03:31:16.263Z,99825.56
2023-02-13T03:33:55.668Z,99829.59
2023-02-13T03:36:50.221Z,99827.03
2023-02-13T03:39:23.166Z,99820.03
2023-02-13T03:41:56.607Z,99821.75
2023-02-13T03:44:29.663Z,99826.28
2023-02-13T03:47:01.290Z,99829.84
2023-02-13T03:49:49.552Z,99829.19
2023-02-13T03:52:23.327Z,99838.22
2023-02-13T03:55:14.142Z,99832.69
2023-02-13T03:58:02.078Z,99842.53
2023-02-13T04:00:34.883Z,99839.06
2023-02-13T04:03:09.737Z,99840.19
2023-02-13T04:05:42.896Z,99837.19
2023-02-13T04:08:10.434Z,99838.03
2023-02-13T04:10:48.154Z,99845.03
2023-02-13T04:13:21.342Z,99843.41
2023-02-13T04:15:53.579Z,99834.78
2023-02-13T04:18:24.384Z,99843.56
2023-02-13T04:20:52.394Z,99838.22
2023-02-13T04:23:20.426Z,99838.28
2023-02-13T04:25:53.150Z,99834.03
2023-02-13T04:28:20.658Z,99830.72
2023-02-13T04:30:49.878Z,99829.94
2023-02-13T04:33:17.507Z,99834.31
2023-02-13T04:35:45.298Z,99834.03
2023-02-13T04:38:12.782Z,99833.44
2023-02-13T04:40:40.276Z,99832.78
2023-02-13T04:43:09.554Z,99832.69
2023-02-13T04:45:37.096Z,99830.31
2023-02-13T04:48:04.723Z,99832.84
2023-02-13T04:50:32.166Z,99828.53
2023-02-13T04:52:59.770Z,99829.34
2023-02-13T04:55:28.735Z,99824.00
2023-02-13T04:57:56.797Z,99831.06
2023-02-13T05:00:27.892Z,99823.13
2023-02-13T05:03:00.944Z,99824.00
2023-02-13T05:05:28.418Z,99821.41
2023-02-13T05:07:55.878Z,99829.28
2023-02-13T05:10:23.376Z,99835.22
2023-02-13T05:12:50.843Z,99830.13
2023-02-13T05:15:18.362Z,99835.41
2023-02-13T05:17:47.931Z,99842.56
2023-02-13T05:20:15.394Z,99845.13
2023-02-13T05:23:02.841Z,99844.63
2023-02-13T05:25:30.279Z,99851.75
2023-02-13T05:27:57.818Z,99846.47
2023-02-13T05:30:25.654Z,99852.97
2023-02-13T05:32:54.964Z,99852.78
2023-02-13T05:35:23.478Z,99854.59
2023-02-13T05:37:51.061Z,99859.78
2023-02-13T05:40:18.727Z,99859.63
2023-02-13T05:42:46.205Z,99863.13
2023-02-13T05:45:13.665Z,99858.75
2023-02-13T05:47:41.285Z,99872.91
2023-02-13T05:50:11.137Z,99866.00
2023-02-13T05:52:38.587Z,99868.72
2023-02-13T05:55:06.700Z,99873.25
2023-02-13T05:57:34.891Z,99871.19
2023-02-13T06:00:02.621Z,99873.06
2023-02-13T06:02:30.085Z,99868.47
2023-02-13T06:04:57.558Z,99872.03
2023-02-13T06:07:26.337Z,99880.06
2023-02-13T06:09:53.817Z,99873.13
2023-02-13T06:12:21.259Z,99883.63
2023-02-13T06:14:48.710Z,99879.28
2023-02-13T06:17:16.151Z,99883.63
2023-02-13T06:19:43.581Z,99880.75
2023-02-13T06:22:11.009Z,99878.19
2023-02-13T06:24:39.829Z,99879.22
2023-02-13T06:27:07.256Z,99883.63
2023-02-13T06:29:34.712Z,99883.47
2023-02-13T06:32:02.254Z,99884.97
2023-02-13T06:34:29.851Z,99891.56
2023-02-13T06:36:57.308Z,99898.81
2023-02-13T06:39:24.750Z,99893.16
2023-02-13T06:41:53.538Z,99894.19
2023-02-13T06:44:20.987Z,99896.06
2023-02-13T06:46:48.448Z,99895.97
2023-02-13T06:49:15.938Z,99899.56
2023-02-13T06:51:43.402Z,99902.16
2023-02-13T06:54:11.154Z,99912.31
2023-02-13T06:56:38.690Z,99912.06
2023-02-13T06:59:07.506Z,99920.94
2023-02-13T07:01:34.960Z,99911.84
2023-02-13T07:04:02.430Z,99917.19
2023-02-13T07:06:29.929Z,99919.06
2023-02-13T07:08:57.431Z,99919.50
2023-02-13T07:11:26.358Z,99913.25
2023-02-13T07:13:53.865Z,99918.28
2023-02-13T07:16:22.722Z,99920.44
2023-02-13T07:18:50.323Z,99914.59
2023-02-13T07:21:17.835Z,99923.44
2023-02-13T07:23:45.298Z,99933.56
2023-02-13T07:26:12.746Z,99921.03
2023-02-13T07:28:40.267Z,99931.16
2023-02-13T07:31:08.274Z,99931.16
2023-02-13T07:33:37.294Z,99930.38
2023-02-13T07:36:05.620Z,99928.72
2023-02-13T07:38:34.024Z,99925.91
2023-02-13T07:41:01.807Z,99934.28
2023-02-13T07:43:30.136Z,99937.94
2023-02-13T07:45:59.809Z,99931.06
2023-02-13T07:48:27.965Z,99936.56
2023-02-13T07:51:01.044Z,99940.81
2023-02-13T07:53:28.886Z,99936.88
2023-02-13T07:55:56.588Z,99942.22
2023-02-13T07:58:24.292Z,99940.72
2023-02-13T08:00:51.804Z,99940.66
2023-02-13T08:03:19.275Z,99940.28
2023-02-13T08:05:49.505Z,99942.13
2023-02-13T08:08:18.305Z,99935.13
2023-02-13T08:11:03.343Z,99940.06
2023-02-13T08:13:30.825Z,99942.25
2023-02-13T08:15:58.723Z,99936.28
2023-02-13T08:18:26.376Z,99936.28
2023-02-13T08:20:53.827Z,99938.00
2023-02-13T08:23:22.629Z,99929.41
2023-02-13T08:25:50.394Z,99937.56
2023-02-13T08:28:18.085Z,99940.50
2023-02-13T08:30:45.613Z,99927.69
2023-02-13T08:33:13.099Z,99934.78
2023-02-13T08:35:40.544Z,99941.03
2023-02-13T08:38:08.008Z,99932.63
2023-02-13T08:40:37.084Z,99939.03
2023-02-13T08:43:06.219Z,99934.53
2023-02-13T08:45:34.533Z,99936.41
2023-02-13T08:48:03.885Z,99941.31
2023-02-13T08:50:31.928Z,99945.97
2023-02-13T08:53:00.637Z,99948.50
2023-02-13T08:55:29.077Z,99940.34
2023-02-13T08:58:00.743Z,99939.25
2023-02-13T09:00:28.362Z,99950.69
2023-02-13T09:02:55.951Z,99950.91
2023-02-13T09:05:23.565Z,99952.41
2023-02-13T09:07:51.020Z,99960.78
2023-02-13T09:10:19.182Z,99952.25
2023-02-13T09:12:53.434Z,99939.97
2023-02-13T09:15:22.281Z,99948.75
2023-02-13T09:17:49.823Z,99943.69
2023-02-13T09:20:17.360Z,99941.94
2023-02-13T09:22:44.875Z,99947.56
2023-02-13T09:25:12.329Z,99941.09
2023-02-13T09:27:39.974Z,99949.31
2023-02-13T09:30:09.008Z,99943.69
2023-02-13T09:32:38.476Z,99948.91
2023-02-13T09:35:08.430Z,99944.94
2023-02-13T09:37:35.876Z,99944.03
2023-02-13T09:40:04.205Z,99948.78
2023-02-13T09:42:37.012Z,99950.50
2023-02-13T09:45:07.537Z,99952.81
2023-02-13T09:47:40.480Z,99952.69
2023-02-13T09:50:15.140Z,99951.03
2023-02-13T09:52:45.716Z,99951.16
2023-02-13T09:55:18.173Z,99939.72
2023-02-13T09:57:52.704Z,99936.56
2023-02-13T10:00:25.522Z,99942.97
2023-02-13T10:03:16.311Z,99944.75
2023-02-13T10:05:48.928Z,99952.59
2023-02-13T10:08:32.267Z,99946.19
2023-02-13T10:11:08.271Z,99942.69
2023-02-13T10:13:54.309Z,99945.53
2023-02-13T10:16:25.605Z,99941.00
2023-02-13T10:18:58.549Z,99930.66
2023-02-13T10:21:31.733Z,99937.06
2023-02-13T10:24:03.678Z,99934.06
2023-02-13T10:26:43.383Z,99935.47
2023-02-13T10:29:35.637Z,99942.84
2023-02-13T10:32:08.283Z,99940.06
2023-02-13T10:34:43.357Z,99939.53
2023-02-13T10:37:16.008Z,99939.06
2023-02-13T10:39:46.458Z,99930.50
2023-02-13T10:42:23.752Z,99933.44
2023-02-13T10:45:03.289Z,99931.75
2023-02-13T10:47:44.318Z,99930.34
2023-02-13T10:50:23.595Z,99933.88
2023-02-13T10:53:00.844Z,99927.66
2023-02-13T10:55:51.034Z,99921.22
2023-02-13T10:58:23.342Z,99922.47
2023-02-13T11:00:58.012Z,99921.97
2023-02-13T11:03:27.566Z,99917.53
2023-02-13T11:05:59.086Z,99920.84
2023-02-13T11:08:31.681Z,99920.00
2023-02-13T11:10:59.543Z,99910.06
2023-02-13T11:13:28.629Z,99915.66
2023-02-13T11:16:04.183Z,99908.19
2023-02-13T11:18:34.238Z,99912.19
2023-02-13T11:21:12.009Z,99910.97
2023-02-13T11:23:44.258Z,99908.03
2023-02-13T11:26:15.387Z,99897.72
2023-02-13T11:28:50.934Z,99898.72
2023-02-13T11:31:28.874Z,99900.53
2023-02-13T11:33:59.041Z,99902.38
2023-02-13T11:36:30.302Z,99890.19
2023-02-13T11:39:03.046Z,99894.66
2023-02-13T11:41:33.289Z,99889.16
2023-02-13T11:44:03.988Z,99891.53
2023-02-13T11:46:44.031Z,99882.91
2023-02-13T11:49:19.749Z,99886.88
2023-02-13T11:51:50.884Z,99887.19
2023-02-13T11:54:25.055Z,99886.34
2023-02-13T11:57:09.335Z,99883.59
2023-02-13T11:59:43.025Z,99884.53
2023-02-13T12:02:16.223Z,99876.13
2023-02-13T12:04:44.254Z,99886.34
2023-02-13T12:07:19.636Z,99878.03
2023-02-13T12:09:49.736Z,99873.97
2023-02-13T12:14:47.147Z,99877.59
2023-02-13T12:17:30.858Z,99865.63
2023-02-13T12:19:59.721Z,99853.81
2023-02-13T12:22:48.205Z,99846.56
2023-02-13T12:25:48.380Z,99842.72
2023-02-13T12:28:20.172Z,99837.84
2023-02-13T12:31:08.423Z,99832.75
2023-02-13T12:34:14.840Z,99824.78
2023-02-13T12:36:54.846Z,99821.41
2023-02-13T12:39:34.137Z,99828.16
2023-02-13T12:42:30.714Z,99812.91
2023-02-13T12:45:15.940Z,99815.03
2023-02-13T12:48:00.874Z,99815.22
2023-02-13T12:50:53.765Z,99812.38
2023-02-13T12:53:41.145Z,99805.16
2023-02-13T12:56:21.252Z,99786.84
2023-02-13T12:59:04.279Z,99789.44
2023-02-13T13:01:59.453Z,99787.13
2023-02-13T13:04:37.678Z,99794.53
2023-02-13T13:07:39.033Z,99791.13
2023-02-13T13:10:29.519Z,99798.44
2023-02-13T13:13:08.149Z,99795.28
2023-02-13T13:15:46.066Z,99789.63
2023-02-13T13:18:26.863Z,99786.66
2023-02-13T13:21:03.536Z,99792.81
2023-02-13T13:23:34.670Z,99783.47
2023-02-13T13:26:16.218Z,99792.00
2023-02-13T13:28:48.235Z,99785.66
2023-02-13T13:31:17.314Z,99770.88
2023-02-13T13:33:47.767Z,99776.59
2023-02-13T13:36:20.988Z,99766.28
2023-02-13T13:39:00.608Z,99772.00
2023-02-13T13:41:36.743Z,99782.19
2023-02-13T13:44:20.858Z,99781.31
2023-02-13T13:46:56.771Z,99782.53
2023-02-13T13:49:35.364Z,99783.16
2023-02-13T13:52:21.850Z,99773.31
2023-02-13T13:54:51.563Z,99762.78
2023-02-13T13:57:19.946Z,99760.00
2023-02-13T14:00:29.901Z,99757.63
2023-02-13T14:03:24.177Z,99758.88
2023-02-13T14:06:01.310Z,99760.41
2023-02-13T14:09:06.033Z,99757.53
2023-02-13T14:11:47.236Z,99753.19
2023-02-13T14:14:52.616Z,99759.53
2023-02-13T14:18:01.186Z,99759.38
2023-02-13T14:20:41.217Z,99748.75
2023-02-13T14:23:18.421Z,99752.88
2023-02-13T14:25:46.541Z,99764.31
2023-02-13T14:28:23.320Z,99771.88
2023-02-13T14:30:54.562Z,99770.75
2023-02-13T14:33:28.696Z,99753.19
2023-02-13T14:36:09.087Z,99756.88
2023-02-13T14:38:37.471Z,99754.22
2023-02-13T14:41:07.198Z,99753.69
2023-02-13T14:43:38.884Z,99764.84
2023-02-13T14:46:25.253Z,99754.22
2023-02-13T14:48:59.006Z,99749.09
2023-02-13T14:51:35.402Z,99755.06
2023-02-13T14:54:08.408Z,99770.78
2023-02-13T14:56:39.746Z,99768.81
2023-02-13T14:59:14.434Z,99749.94
2023-02-13T15:01:49.745Z,99740.28
2023-02-13T15:04:22.891Z,99755.88
2023-02-13T15:06:53.296Z,99755.88
2023-02-13T15:09:29.354Z,99739.09
2023-02-13T15:11:56.812Z,99728.56
2023-02-13T15:14:31.182Z,99744.84
2023-02-13T15:17:05.672Z,99746.78
2023-02-13T15:19:35.158Z,99734.25
2023-02-13T15:22:06.301Z,99739.38
2023-02-13T15:24:39.472Z,99748.09
2023-02-13T15:27:08.450Z,99751.63
2023-02-13T15:29:49.181Z,99750.44
2023-02-13T15:32:20.797Z,99753.78
2023-02-13T15:34:49.592Z,99752.69
2023-02-13T15:37:24.036Z,99754.53
2023-02-13T15:39:51.545Z,99756.47
2023-02-13T15:42:19.413Z,99763.06
2023-02-13T15:44:49.250Z,99748.13
2023-02-13T15:47:22.000Z,99756.19
2023-02-13T15:49:50.971Z,99753.38
2023-02-13T15:52:22.436Z,99755.09
2023-02-13T15:54:53.619Z,99745.63
2023-02-13T15:57:23.301Z,99743.47
2023-02-13T15:59:51.544Z,99751.38
2023-02-13T16:02:22.001Z,99743.88
2023-02-13T16:04:53.002Z,99740.09
2023-02-13T16:07:20.790Z,99748.38
2023-02-13T16:09:48.791Z,99748.19
2023-02-13T16:12:23.819Z,99751.94
2023-02-13T16:14:54.062Z,99743.03
2023-02-13T16:17:28.837Z,99758.09
2023-02-13T16:20:00.420Z,99746.28
2023-02-13T16:22:37.872Z,99757.56
2023-02-13T16:25:15.842Z,99754.38
2023-02-13T16:27:46.329Z,99761.13
2023-02-13T16:30:26.590Z,99760.19
2023-02-13T16:33:12.116Z,99763.00
2023-02-13T16:35:42.574Z,99763.25
2023-02-13T16:38:26.849Z,99765.91
2023-02-13T16:40:56.228Z,99772.66
2023-02-13T16:43:48.506Z,99772.47
2023-02-13T16:46:25.468Z,99779.34
2023-02-13T16:49:06.737Z,99782.47
2023-02-13T16:51:36.003Z,99764.91
2023-02-13T16:54:05.773Z,99775.44
2023-02-13T16:56:41.328Z,99775.00
2023-02-13T16:59:24.121Z,99778.59
2023-02-13T17:02:04.161Z,99776.50
2023-02-13T17:04:31.870Z,99781.47
2023-02-13T17:06:59.329Z,99777.56
2023-02-13T17:09:26.773Z,99775.22
2023-02-13T17:11:54.642Z,99775.53
2023-02-13T17:14:23.475Z,99779.06
2023-02-13T17:16:50.930Z,99778.00
2023-02-13T17:19:18.476Z,99788.31
2023-02-13T17:21:46.034Z,99788.28
2023-02-13T17:24:18.679Z,99783.28
2023-02-13T17:26:46.120Z,99788.81
2023-02-13T17:29:13.754Z,99791.91
2023-02-13T17:31:42.680Z,99786.91
2023-02-13T17:34:11.494Z,99788.56
2023-02-13T17:36:38.971Z,99782.50
2023-02-13T17:39:06.427Z,99789.34
2023-02-13T17:41:33.850Z,99797.31
2023-02-13T17:44:01.298Z,99796.22
2023-02-13T17:46:28.830Z,99792.31
2023-02-13T17:48:57.656Z,99787.31
2023-02-13T17:51:25.159Z,99786.09
2023-02-13T17:53:52.930Z,99787.50
2023-02-13T17:56:20.423Z,99785.28
2023-02-13T17:58:48.142Z,99790.16
2023-02-13T18:01:15.663Z,99791.44
2023-02-13T18:03:43.118Z,99797.34
2023-02-13T18:06:15.774Z,99795.22
2023-02-13T18:08:43.238Z,99785.69
2023-02-13T18:11:11.565Z,99792.81
2023-02-13T18:13:43.829Z,99792.44
2023-02-13T18:16:12.062Z,99803.97
2023-02-13T18:18:39.593Z,99807.53
2023-02-13T18:21:07.044Z,99798.28
2023-02-13T18:23:36.038Z,99805.38
2023-02-13T18:26:07.718Z,99802.94
2023-02-13T18:28:35.596Z,99800.41
2023-02-13T18:31:03.337Z,99795.81
2023-02-13T18:33:30.997Z,99798.81
2023-02-13T18:36:02.311Z,99801.44
2023-02-13T18:38:30.603Z,99803.91
2023-02-13T18:41:00.073Z,99810.91
2023-02-13T18:43:28.031Z,99801.97
2023-02-13T18:45:55.512Z,99803.19
2023-02-13T18:48:23.109Z,99803.00
2023-02-13T18:50:50.553Z,99806.66
2023-02-13T18:53:18.121Z,99798.69
2023-02-13T18:55:45.581Z,99804.22
2023-02-13T18:58:14.376Z,99805.75
2023-02-13T19:00:41.865Z,99804.59
2023-02-13T19:03:09.431Z,99803.72
2023-02-13T19:05:41.291Z,99805.09
2023-02-13T19:08:08.750Z,99808.69
2023-02-13T19:10:36.385Z,99805.88
2023-02-13T19:13:03.854Z,99803.75
2023-02-13T19:15:32.665Z,99811.03
2023-02-13T19:18:00.164Z,99803.78
2023-02-13T19:20:27.608Z,99808.91
2023-02-13T19:22:56.338Z,99814.72
2023-02-13T19:25:23.828Z,99816.31
2023-02-13T19:27:51.399Z,99815.69
2023-02-13T19:30:19.188Z,99811.38
2023-02-13T19:32:48.055Z,99810.44
2023-02-13T19:35:15.723Z,99811.09
2023-02-13T19:37:44.474Z,99803.09
2023-02-13T19:40:13.577Z,99814.88
2023-02-13T19:42:41.065Z,99824.47
2023-02-13T19:45:09.434Z,99819.25
2023-02-13T19:47:36.914Z,99811.63
2023-02-13T19:50:07.067Z,99825.50
2023-02-13T19:52:34.526Z,99828.06
2023-02-13T19:55:02.500Z,99831.38
2023-02-13T19:57:29.962Z,99835.75
2023-02-13T19:59:57.466Z,99834.47
2023-02-13T20:02:25.010Z,99846.34
2023-02-13T20:04:52.494Z,99845.72
2023-02-13T20:07:21.272Z,99854.56
2023-02-13T20:09:48.923Z,99847.00
2023-02-13T20:12:16.468Z,99841.84
2023-02-13T20:14:44.142Z,99835.88
2023-02-13T20:17:11.595Z,99838.81
2023-02-13T20:19:39.324Z,99833.25
2023-02-13T20:22:06.834Z,99838.53
2023-02-13T20:24:35.744Z,99836.53
2023-02-13T20:27:03.462Z,99832.59
2023-02-13T20:29:33.607Z,99831.75
2023-02-13T20:32:01.563Z,99823.47
2023-02-13T20:34:31.582Z,99820.66
2023-02-13T20:37:05.018Z,99815.28
2023-02-13T20:39:32.991Z,99821.03
2023-02-13T20:42:01.754Z,99824.91
2023-02-13T20:44:30.269Z,99828.72
2023-02-13T20:46:59.583Z,99825.03
2023-02-13T20:49:27.872Z,99818.72
2023-02-13T20:51:55.359Z,99816.78
2023-02-13T20:54:22.866Z,99815.94
2023-02-13T20:56:50.329Z,99810.63
2023-02-13T20:59:19.238Z,99813.22
2023-02-13T21:01:46.763Z,99814.81
2023-02-13T21:04:18.981Z,99809.81
2023-02-13T21:06:48.120Z,99808.47
2023-02-13T21:09:16.425Z,99811.97
2023-02-13T21:11:45.228Z,99808.41
2023-02-13T21:14:13.744Z,99812.09
2023-02-13T21:16:43.952Z,99816.34
2023-02-13T21:19:15.055Z,99818.22
2023-02-13T21:21:44.007Z,99809.25
2023-02-13T21:24:13.287Z,99811.56
2023-02-13T21:26:41.633Z,99810.47
2023-02-13T21:29:09.587Z,99808.94
2023-02-13T21:31:39.259Z,99802.88
2023-02-13T21:34:10.946Z,99801.19
2023-02-13T21:36:39.686Z,99799.84
2023-02-13T21:39:08.741Z,99797.22
2023-02-13T21:41:37.046Z,99789.00
2023-02-13T21:44:04.619Z,99786.84
2023-02-13T21:46:33.545Z,99781.63
2023-02-13T21:49:03.839Z,99788.16
2023-02-13T21:51:34.768Z,99788.25
2023-02-13T21:54:03.103Z,99790.25
2023-02-13T21:56:32.742Z,99787.84
2023-02-13T21:59:00.751Z,99778.31
2023-02-13T22:01:30.161Z,99774.91
2023-02-13T22:04:01.049Z,99779.63
2023-02-13T22:06:29.915Z,99787.28
2023-02-13T22:09:00.723Z,99792.22
2023-02-13T22:11:28.700Z,99783.53
2023-02-13T22:13:57.276Z,99789.28
2023-02-13T22:16:25.347Z,99791.84
2023-02-13T22:18:52.815Z,99785.88
2023-02-13T22:21:22.219Z,99782.75
2023-02-13T22:23:50.628Z,99788.72
2023-02-13T22:26:21.869Z,99787.66
2023-02-13T22:28:50.265Z,99801.88
2023-02-13T22:31:19.214Z,99803.16
2023-02-13T22:33:52.329Z,99790.22
2023-02-13T22:36:26.702Z,99788.00
2023-02-13T22:38:54.835Z,99784.16
2023-02-13T22:41:26.545Z,99792.13
2023-02-13T22:43:54.369Z,99793.59
2023-02-13T22:46:24.086Z,99787.44
2023-02-13T22:48:52.384Z,99796.94
2023-02-13T22:51:22.029Z,99792.50
2023-02-13T22:53:49.663Z,99792.78
2023-02-13T22:56:17.281Z,99799.28
2023-02-13T22:58:46.075Z,99791.63
2023-02-13T23:01:15.281Z,99797.78
2023-02-13T23:03:43.294Z,99793.63
2023-02-13T23:06:12.969Z,99800.34
2023-02-13T23:08:40.735Z,99795.50
2023-02-13T23:11:28.299Z,99785.56
2023-02-13T23:13:57.073Z,99788.09
2023-02-13T23:16:25.032Z,99787.84
2023-02-13T23:18:53.040Z,99776.84
2023-02-13T23:21:21.091Z,99778.81
2023-02-13T23:23:48.986Z,99786.13
2023-02-13T23:26:16.966Z,99780.56
2023-02-13T23:28:44.516Z,99776.94
2023-02-13T23:31:13.496Z,99770.69
2023-02-13T23:33:40.892Z,99769.41
2023-02-13T23:36:09.181Z,99780.38
2023-02-13T23:38:36.636Z,99779.06
2023-02-13T23:41:07.860Z,99768.53
2023-02-13T23:43:35.349Z,99774.59
2023-02-13T23:46:04.339Z,99766.09
2023-02-13T23:48:33.904Z,99767.59
2023-02-13T23:51:02.014Z,99765.28
2023-02-13T23:53:29.819Z,99771.88
2023-02-13T23:55:57.423Z,99767.69
2023-02-13T23:58:24.873Z,99764.88
